Time;durP1;ratioP1;P1;durP2;ratioP2;P2;SDS_P1;SDS_P2;PMS_P1;PMS_P2;Temp;Humidity;BMP_temperature;BMP_pressure;BME280_temperature;BME280_humidity;BME280_pressure;Samples;Min_cycle;Max_cycle;Signal;HPM_P1;HPM_P2
2024/01/21 00:02:01;;;;;;;;;44.25;29.25;;;;;0.96;93.58;102270.28;5081937;28;45295;-78
2024/01/21 00:04:27;;;;;;;;;32.50;31.00;;;;;1.08;93.13;102274.81;5080258;28;45349;-78
2024/01/21 00:06:52;;;;;;;;;32.25;31.50;;;;;0.97;92.33;102262.50;5063342;28;45455;-77
2024/01/21 00:09:17;;;;;;;;;44.75;32.00;;;;;0.87;93.08;102225.88;5077634;28;53553;-77
2024/01/21 00:11:43;;;;;;;;;36.00;30.75;;;;;1.02;93.36;102254.75;5080473;28;46898;-78
2024/01/21 00:14:08;;;;;;;;;35.75;32.25;;;;;0.98;92.87;102250.38;5075329;28;45317;-78
2024/01/21 00:16:33;;;;;;;;;31.50;28.50;;;;;0.91;93.32;102240.69;5063897;28;45448;-78
2024/01/21 00:18:58;;;;;;;;;38.25;35.50;;;;;0.72;93.47;102216.09;5081505;28;45371;-78
2024/01/21 00:21:24;;;;;;;;;38.75;35.25;;;;;0.83;93.20;102234.47;5068041;28;62977;-78
2024/01/21 00:23:49;;;;;;;;;30.50;28.50;;;;;0.70;92.66;102210.00;5076300;28;52311;-78
2024/01/21 00:26:14;;;;;;;;;40.00;33.75;;;;;0.94;94.50;102249.44;5080611;28;45446;-78
2024/01/21 00:28:39;;;;;;;;;38.75;33.50;;;;;0.76;93.61;102222.22;5064800;28;55824;-78
2024/01/21 00:31:05;;;;;;;;;41.25;29.25;;;;;0.80;93.89;102245.72;5067735;28;46706;-77
2024/01/21 00:33:30;;;;;;;;;48.00;33.50;;;;;0.93;94.14;102259.81;5081470;28;45517;-77
2024/01/21 00:35:56;;;;;;;;;38.50;30.50;;;;;0.76;94.49;102233.50;5064173;28;45452;-77
2024/01/21 00:38:21;;;;;;;;;29.25;27.75;;;;;0.94;93.54;102266.78;5075928;28;45407;-77
2024/01/21 00:40:46;;;;;;;;;39.25;28.00;;;;;0.87;93.10;102251.91;5073364;28;46097;-77
2024/01/21 00:43:12;;;;;;;;;33.00;29.00;;;;;0.65;94.19;102214.25;5062759;28;45423;-78
2024/01/21 00:45:37;;;;;;;;;33.50;25.75;;;;;0.85;93.87;102238.84;5062311;28;45636;-79
2024/01/21 00:48:03;;;;;;;;;37.00;27.75;;;;;0.56;94.08;102177.66;5080656;28;45296;-79
2024/01/21 00:50:28;;;;;;;;;36.50;26.00;;;;;0.68;94.09;102196.09;5082079;28;45666;-78
2024/01/21 00:52:53;;;;;;;;;25.75;25.50;;;;;0.78;94.09;102216.22;5080677;28;45305;-78
2024/01/21 00:55:19;;;;;;;;;30.50;23.25;;;;;0.90;94.56;102242.44;5077989;28;45210;-78
2024/01/21 00:57:45;;;;;;;;;28.25;21.75;;;;;0.95;94.08;102265.91;5062701;28;45583;-78
2024/01/21 01:00:10;;;;;;;;;32.00;28.00;;;;;0.89;93.85;102255.41;5080710;28;46850;-78
2024/01/21 01:02:36;;;;;;;;;34.25;26.25;;;;;0.80;93.54;102247.47;5062631;28;45554;-79
2024/01/21 01:05:01;;;;;;;;;37.75;27.75;;;;;0.77;93.83;102258.72;5076417;28;45529;-79
2024/01/21 01:07:27;;;;;;;;;21.50;20.75;;;;;0.79;93.81;102256.13;5062887;28;45303;-78
2024/01/21 01:09:52;;;;;;;;;37.50;27.25;;;;;0.87;94.14;102272.75;5079346;28;47070;-78
2024/01/21 01:12:18;;;;;;;;;34.00;25.00;;;;;0.79;94.11;102261.31;5079260;28;48738;-78
2024/01/21 01:14:43;;;;;;;;;31.25;25.75;;;;;0.60;94.18;102225.44;5071631;28;45367;-78
2024/01/21 01:17:08;;;;;;;;;31.00;25.25;;;;;0.30;93.87;102169.44;5081035;28;45356;-77
2024/01/21 01:19:34;;;;;;;;;30.25;23.50;;;;;0.82;93.85;102256.19;5072969;28;45368;-79
2024/01/21 01:22:00;;;;;;;;;24.75;23.75;;;;;0.71;94.35;102231.69;5079166;28;45337;-79
2024/01/21 01:24:25;;;;;;;;;25.50;23.00;;;;;0.53;93.42;102212.31;5077919;28;45498;-78
2024/01/21 01:26:50;;;;;;;;;25.25;24.00;;;;;0.71;93.51;102242.13;5080763;28;45399;-78
2024/01/21 01:29:16;;;;;;;;;27.75;23.00;;;;;0.70;93.20;102232.53;5076016;28;48193;-77
2024/01/21 01:31:42;;;;;;;;;21.50;20.50;;;;;0.57;93.29;102220.19;5080348;28;45383;-78
2024/01/21 01:34:07;;;;;;;;;29.75;25.25;;;;;0.76;93.03;102251.75;5075969;28;45372;-77
2024/01/21 01:36:33;;;;;;;;;33.50;26.00;;;;;0.84;93.01;102263.16;5056248;28;45502;-77
2024/01/21 01:38:59;;;;;;;;;29.25;22.00;;;;;0.52;94.05;102187.13;5076905;28;45303;-78
2024/01/21 01:41:24;;;;;;;;;27.50;25.25;;;;;0.69;93.66;102217.78;5074181;28;45284;-78
2024/01/21 01:43:49;;;;;;;;;26.25;22.00;;;;;0.88;92.69;102272.75;5079745;28;45343;-78
2024/01/21 01:46:15;;;;;;;;;25.25;23.00;;;;;0.87;93.54;102263.22;5079197;28;45416;-78
2024/01/21 01:48:40;;;;;;;;;29.50;23.25;;;;;0.90;92.93;102272.78;5079806;28;45379;-78
2024/01/21 01:51:07;;;;;;;;;22.25;21.75;;;;;0.81;93.68;102255.31;5058569;28;45380;-78
2024/01/21 01:53:35;;;;;;;;;26.75;22.00;;;;;0.78;93.69;102242.25;5076948;28;45445;-79
2024/01/21 01:56:01;;;;;;;;;27.75;22.75;;;;;0.96;92.70;102280.69;5059599;28;45594;-77
2024/01/21 01:58:29;;;;;;;;;32.75;23.75;;;;;0.89;93.69;102271.91;5077140;28;45560;-76
2024/01/21 02:00:56;;;;;;;;;20.25;17.75;;;;;0.79;93.20;102258.72;5062013;28;45352;-78
2024/01/21 02:03:25;;;;;;;;;30.50;25.50;;;;;0.93;92.91;102283.25;5075590;28;45495;-78
2024/01/21 02:05:50;;;;;;;;;26.50;22.00;;;;;0.80;92.73;102248.34;5068430;28;45428;-78
2024/01/21 02:08:16;;;;;;;;;27.50;21.50;;;;;0.99;93.27;102281.63;5078276;28;45455;-78
2024/01/21 02:10:41;;;;;;;;;22.25;22.25;;;;;0.98;91.38;102271.19;5072998;28;45422;-78
2024/01/21 02:13:06;;;;;;;;;19.00;15.00;;;;;1.04;91.98;102268.69;5074646;28;45334;-78
2024/01/21 02:15:32;;;;;;;;;24.00;19.25;;;;;1.14;92.49;102272.31;5072756;28;45347;-77
2024/01/21 02:17:57;;;;;;;;;31.00;19.00;;;;;0.81;91.31;102205.84;5076529;28;45288;-77
2024/01/21 02:20:22;;;;;;;;;22.00;22.00;;;;;0.96;92.24;102245.13;5077215;28;45292;-77
2024/01/21 02:22:48;;;;;;;;;29.75;21.00;;;;;1.17;92.07;102270.63;5078584;28;45398;-77
2024/01/21 02:25:13;;;;;;;;;25.75;19.00;;;;;0.95;92.23;102225.13;5080059;28;45385;-78
2024/01/21 02:27:39;;;;;;;;;23.25;17.25;;;;;0.94;91.41;102217.31;5079325;28;45255;-78
2024/01/21 02:30:05;;;;;;;;;20.25;19.25;;;;;1.19;90.15;102270.63;5077985;28;45384;-78
2024/01/21 02:32:30;;;;;;;;;21.50;18.00;;;;;1.25;91.59;102268.97;5078453;28;45325;-77
2024/01/21 02:34:56;;;;;;;;;22.75;19.00;;;;;1.24;91.10;102264.66;5079050;28;45439;-78
2024/01/21 02:37:21;;;;;;;;;24.50;23.25;;;;;1.28;90.73;102276.84;5082996;28;45463;-77
2024/01/21 02:39:46;;;;;;;;;16.00;14.00;;;;;1.26;90.12;102262.94;5061260;28;45423;-78
2024/01/21 02:42:12;;;;;;;;;19.50;19.25;;;;;1.29;90.61;102265.56;5079612;28;45571;-78
2024/01/21 02:44:37;;;;;;;;;27.25;18.00;;;;;1.10;89.08;102223.59;5071318;28;45391;-77
2024/01/21 02:47:03;;;;;;;;;25.00;21.50;;;;;1.30;89.58;102248.22;5078333;28;45432;-77
2024/01/21 02:49:29;;;;;;;;;20.00;18.00;;;;;1.21;88.69;102235.91;5078937;28;46010;-78
2024/01/21 02:51:58;;;;;;;;;25.00;21.75;;;;;1.39;90.00;102245.72;5059607;28;45467;-78
2024/01/21 02:54:24;;;;;;;;;26.25;19.50;;;;;1.37;89.01;102235.28;5079424;28;45297;-77
2024/01/21 02:56:50;;;;;;;;;17.25;16.25;;;;;1.08;88.39;102181.03;5060825;28;47731;-77
2024/01/21 02:59:15;;;;;;;;;23.25;20.50;;;;;1.29;88.36;102204.75;5056863;28;45542;-77
2024/01/21 03:01:41;;;;;;;;;23.00;19.00;;;;;1.34;89.82;102222.19;5057383;28;45280;-77
2024/01/21 03:04:13;;;;;;;;;23.25;20.75;;;;;1.39;88.53;102217.94;5061320;28;45458;-77
2024/01/21 03:06:39;;;;;;;;;19.25;19.25;;;;;1.10;88.58;102151.53;5057726;28;46462;-77
2024/01/21 03:09:04;;;;;;;;;21.00;18.50;;;;;1.17;88.63;102155.09;5053640;28;45380;-78
2024/01/21 03:11:32;;;;;;;;;26.75;20.75;;;;;1.40;87.90;102195.34;5061058;28;45552;-78
2024/01/21 03:13:57;;;;;;;;;23.00;17.25;;;;;1.45;86.44;102189.34;5076955;28;45343;-78
2024/01/21 03:16:22;;;;;;;;;20.25;17.00;;;;;1.33;86.25;102170.94;5077457;28;52140;-78
2024/01/21 03:18:47;;;;;;;;;19.75;16.25;;;;;1.30;86.00;102170.91;5077253;28;48573;-78
2024/01/21 03:21:13;;;;;;;;;20.75;19.50;;;;;1.51;86.00;102205.03;5063604;28;45383;-77
2024/01/21 03:23:38;;;;;;;;;20.00;17.50;;;;;1.08;85.08;102141.97;5058712;28;45376;-78
2024/01/21 03:26:03;;;;;;;;;28.25;23.75;;;;;1.61;85.11;102226.88;5057147;28;47096;-78
2024/01/21 03:28:29;;;;;;;;;20.50;20.25;;;;;1.63;83.77;102229.53;5064673;28;59335;-78
2024/01/21 03:30:54;;;;;;;;;26.25;23.75;;;;;1.51;83.46;102225.91;5076858;28;45375;-78
2024/01/21 03:33:21;;;;;;;;;15.75;14.75;;;;;1.55;82.65;102234.63;5059301;28;46132;-78
2024/01/21 03:35:47;;;;;;;;;23.25;21.25;;;;;1.40;84.71;102198.84;5055116;28;45472;-78
2024/01/21 03:38:12;;;;;;;;;19.25;17.50;;;;;1.69;83.48;102247.84;5076919;28;45493;-78
2024/01/21 03:40:38;;;;;;;;;23.00;16.25;;;;;1.42;83.85;102202.34;5077107;28;45633;-78
2024/01/21 03:43:03;;;;;;;;;19.00;19.00;;;;;1.17;81.63;102152.50;5056380;28;45601;-77
2024/01/21 03:45:29;;;;;;;;;11.00;10.25;;;;;1.69;80.75;102232.19;5075081;28;46263;-78
2024/01/21 03:47:54;;;;;;;;;20.00;15.25;;;;;1.79;82.51;102261.03;5073345;28;56975;-78
2024/01/21 03:50:20;;;;;;;;;21.25;15.00;;;;;1.71;80.15;102254.81;5075053;28;45420;-78
2024/01/21 03:52:49;;;;;;;;;18.25;17.00;;;;;1.79;79.84;102270.56;5055554;28;45622;-78
2024/01/21 03:55:15;;;;;;;;;17.75;15.25;;;;;1.87;81.37;102272.41;5074507;28;46081;-78
2024/01/21 03:57:41;;;;;;;;;19.25;14.75;;;;;1.78;79.98;102255.78;5059338;28;45372;-77
2024/01/21 04:00:10;;;;;;;;;18.75;17.75;;;;;1.68;79.66;102227.84;5076881;28;45565;-78
2024/01/21 04:02:36;;;;;;;;;20.50;15.25;;;;;1.80;79.32;102238.44;5073729;28;45587;-78
2024/01/21 04:05:03;;;;;;;;;16.25;11.00;;;;;1.81;80.39;102229.72;5067628;28;45395;-77
2024/01/21 04:07:28;;;;;;;;;25.00;17.00;;;;;1.16;80.22;102114.25;5066705;28;45510;-79
2024/01/21 04:09:53;;;;;;;;;16.25;14.00;;;;;1.94;80.37;102235.09;5074207;28;45464;-78
2024/01/21 04:12:19;;;;;;;;;19.25;13.50;;;;;1.81;78.49;102194.09;5055834;28;45685;-78
2024/01/21 04:14:44;;;;;;;;;18.00;15.50;;;;;1.97;77.48;102224.69;5057901;28;45538;-79
2024/01/21 04:17:11;;;;;;;;;17.75;15.00;;;;;2.07;80.29;102223.06;5078377;28;45442;-78
2024/01/21 04:19:37;;;;;;;;;17.00;14.75;;;;;2.07;80.13;102212.63;5072752;28;45370;-79
2024/01/21 04:22:02;;;;;;;;;16.00;14.00;;;;;2.09;81.77;102217.00;5073059;28;45432;-78
2024/01/21 04:24:27;;;;;;;;;16.50;13.75;;;;;1.86;81.55;102166.34;5076501;28;46599;-79
2024/01/21 04:26:53;;;;;;;;;16.75;15.50;;;;;1.91;82.04;102177.69;5060115;28;45588;-78
2024/01/21 04:29:18;;;;;;;;;21.50;19.50;;;;;1.99;82.00;102176.03;5074165;28;45304;-78
2024/01/21 04:31:44;;;;;;;;;11.75;11.75;;;;;2.06;82.56;102151.72;5071544;28;45579;-77
2024/01/21 04:34:09;;;;;;;;;17.25;14.25;;;;;2.01;82.35;102174.31;5048156;28;46715;-78
2024/01/21 04:36:35;;;;;;;;;25.50;15.00;;;;;2.16;83.33;102180.53;5071836;28;45879;-77
2024/01/21 04:39:00;;;;;;;;;17.75;14.00;;;;;2.09;82.97;102167.41;5078890;28;45331;-77
2024/01/21 04:41:26;;;;;;;;;18.50;14.75;;;;;1.93;82.70;102141.19;5060376;28;45779;-77
2024/01/21 04:43:51;;;;;;;;;19.00;17.25;;;;;1.86;83.54;102135.03;5081596;28;45434;-77
2024/01/21 04:46:16;;;;;;;;;16.50;11.00;;;;;2.07;84.19;102186.53;5083937;28;45431;-77
2024/01/21 04:48:42;;;;;;;;;15.00;13.75;;;;;2.31;82.42;102206.78;5078754;28;45290;-77
2024/01/21 04:51:07;;;;;;;;;17.25;15.25;;;;;2.20;83.40;102184.91;5076774;28;45699;-77
2024/01/21 04:53:33;;;;;;;;;20.75;16.25;;;;;1.82;82.16;102104.56;5077246;28;46090;-77
2024/01/21 04:55:58;;;;;;;;;17.00;14.00;;;;;2.02;82.34;102138.66;5080229;28;45490;-78
2024/01/21 04:58:23;;;;;;;;;15.00;11.75;;;;;2.37;83.07;102192.03;5080705;28;45405;-78
2024/01/21 05:00:51;;;;;;;;;15.50;15.50;;;;;1.87;82.18;102097.66;5063155;28;45678;-78
2024/01/21 05:03:17;;;;;;;;;12.75;10.25;;;;;2.30;83.43;102171.06;5071131;28;46321;-77
2024/01/21 05:05:42;;;;;;;;;13.75;12.75;;;;;2.35;83.35;102196.38;5072171;28;45396;-77
2024/01/21 05:08:07;;;;;;;;;17.75;15.00;;;;;2.33;82.33;102190.25;5062581;28;45355;-77
2024/01/21 05:10:33;;;;;;;;;15.25;11.50;;;;;2.43;84.88;102186.84;5070362;28;45407;-77
2024/01/21 05:13:00;;;;;;;;;16.00;11.00;;;;;2.03;86.50;102127.34;5061369;28;45550;-77
2024/01/21 05:15:25;;;;;;;;;16.75;14.00;;;;;2.00;88.33;102094.28;5080910;28;45412;-78
2024/01/21 05:17:52;;;;;;;;;16.50;15.00;;;;;2.15;90.07;102122.25;5062541;28;45301;-78
2024/01/21 05:20:17;;;;;;;;;20.00;16.75;;;;;2.32;93.39;102167.63;5062660;28;45671;-78
2024/01/21 05:22:43;;;;;;;;;18.25;16.50;;;;;2.38;96.47;102158.97;5061390;28;47596;-78
2024/01/21 05:25:08;;;;;;;;;16.75;16.75;;;;;2.00;94.25;102096.88;5064518;28;45424;-78
2024/01/21 05:27:34;;;;;;;;;21.25;12.00;;;;;2.24;96.50;102131.88;5080804;28;46180;-78
2024/01/21 05:30:00;;;;;;;;;9.00;6.00;;;;;1.49;97.04;102008.66;5064012;28;45486;-79
2024/01/21 05:32:25;;;;;;;;;15.00;13.50;;;;;2.02;98.45;102094.31;5062742;28;47891;-79
2024/01/21 05:34:51;;;;;;;;;18.25;14.75;;;;;2.06;96.94;102085.66;5079449;28;45419;-79
2024/01/21 05:37:16;;;;;;;;;15.00;14.25;;;;;2.03;95.59;102090.81;5052221;28;45605;-78
2024/01/21 05:39:42;;;;;;;;;15.25;14.75;;;;;2.06;97.09;102130.84;5062258;28;45648;-78
2024/01/21 05:42:08;;;;;;;;;14.50;11.50;;;;;2.09;96.60;102112.63;5080293;28;46477;-78
2024/01/21 05:44:33;;;;;;;;;13.00;13.00;;;;;2.17;100.00;102148.34;5077584;28;45305;-78
2024/01/21 05:47:00;;;;;;;;;12.25;9.75;;;;;2.12;97.07;102110.91;5068378;28;45538;-79
2024/01/21 05:49:26;;;;;;;;;11.75;11.75;;;;;1.69;95.65;102041.84;5060780;28;45320;-79
2024/01/21 05:51:52;;;;;;;;;24.50;17.00;;;;;2.19;95.44;102117.94;5048904;28;46097;-79
2024/01/21 05:54:18;;;;;;;;;12.25;12.25;;;;;2.18;95.59;102083.13;5080266;28;45376;-79
2024/01/21 05:56:44;;;;;;;;;12.00;12.00;;;;;2.31;95.99;102123.25;5078748;28;45513;-78
2024/01/21 05:59:09;;;;;;;;;14.00;12.25;;;;;2.17;96.19;102133.56;5079393;28;45621;-78
2024/01/21 06:01:34;;;;;;;;;17.25;13.50;;;;;2.48;95.13;102173.84;5075962;28;46343;-78
2024/01/21 06:04:00;;;;;;;;;12.25;12.25;;;;;2.04;97.16;102090.84;5080098;28;45286;-77
2024/01/21 06:06:26;;;;;;;;;11.50;10.25;;;;;2.32;95.80;102132.84;5080018;28;45639;-78
2024/01/21 06:08:51;;;;;;;;;14.25;12.50;;;;;1.75;96.24;102040.16;5078561;28;45502;-80
2024/01/21 06:11:18;;;;;;;;;18.50;14.50;;;;;2.21;96.92;102139.69;5080145;28;45507;-79
2024/01/21 06:13:44;;;;;;;;;17.75;13.25;;;;;1.70;97.57;102054.91;5078237;28;45313;-79
2024/01/21 06:16:16;;;;;;;;;12.25;11.00;;;;;1.92;95.60;102092.47;5078089;28;45225;-80
2024/01/21 06:18:41;;;;;;;;;12.00;9.25;;;;;2.29;95.84;102143.25;5079117;28;45510;-78
2024/01/21 06:21:06;;;;;;;;;11.50;11.50;;;;;2.02;94.95;102096.91;5069810;28;45446;-79
2024/01/21 06:23:32;;;;;;;;;15.50;12.50;;;;;1.71;96.69;102033.16;5061433;28;45501;-78
2024/01/21 06:25:57;;;;;;;;;10.75;10.00;;;;;2.18;97.08;102096.19;5079759;28;45404;-78
2024/01/21 06:28:23;;;;;;;;;12.00;10.50;;;;;2.03;96.05;102054.28;5060373;28;45449;-78
2024/01/21 06:30:48;;;;;;;;;12.00;11.75;;;;;2.72;97.41;102184.47;5059188;28;46269;-78
2024/01/21 06:33:13;;;;;;;;;11.00;10.00;;;;;2.07;97.54;102080.44;5079598;28;45194;-78
2024/01/21 06:35:45;;;;;;;;;15.00;10.50;;;;;2.39;100.00;102116.34;5079707;28;45337;-78
2024/01/21 06:38:10;;;;;;;;;15.00;12.00;;;;;2.19;99.97;102095.31;5079225;28;45520;-78
2024/01/21 06:40:38;;;;;;;;;13.50;11.25;;;;;2.38;100.00;102093.72;5060932;28;47416;-79
2024/01/21 06:43:03;;;;;;;;;9.00;9.00;;;;;2.78;100.00;102181.88;5062701;28;45319;-78
2024/01/21 06:45:31;;;;;;;;;12.50;11.25;;;;;1.84;100.00;102027.19;5079131;28;45454;-79
2024/01/21 06:47:56;;;;;;;;;11.50;9.00;;;;;2.36;100.00;102119.78;5069203;28;45296;-78
2024/01/21 06:50:22;;;;;;;;;13.50;13.50;;;;;2.65;100.00;102158.31;5077337;28;48306;-79
2024/01/21 06:52:49;;;;;;;;;10.00;10.00;;;;;2.04;100.00;102054.31;5079308;28;45371;-79
2024/01/21 06:55:14;;;;;;;;;15.00;13.50;;;;;2.10;100.00;102063.91;5061910;28;45554;-78
2024/01/21 06:57:39;;;;;;;;;11.00;9.25;;;;;2.84;100.00;102217.66;5079226;28;45411;-79
2024/01/21 07:00:05;;;;;;;;;11.75;10.00;;;;;2.67;100.00;102172.25;5060495;28;47306;-79
2024/01/21 07:02:32;;;;;;;;;15.00;14.25;;;;;2.75;100.00;102178.41;5081018;28;45431;-79
2024/01/21 07:05:01;;;;;;;;;7.25;7.25;;;;;2.13;100.00;102066.53;5056902;28;45506;-79
2024/01/21 07:07:29;;;;;;;;;18.25;12.75;;;;;2.56;100.00;102143.44;5077109;28;45366;-82
2024/01/21 07:09:55;;;;;;;;;15.00;10.50;;;;;2.30;100.00;102148.47;5076368;28;45583;-80
2024/01/21 07:12:20;;;;;;;;;11.25;11.25;;;;;2.32;99.85;102132.84;5073677;28;45415;-79
2024/01/21 07:14:45;;;;;;;;;11.25;11.00;;;;;2.34;100.00;102139.81;5056163;28;45701;-79
2024/01/21 07:17:11;;;;;;;;;15.25;11.25;;;;;2.34;99.88;102136.31;5078244;28;45692;-80
2024/01/21 07:19:39;;;;;;;;;11.25;11.00;;;;;2.38;99.15;102114.59;5072438;28;46428;-79
2024/01/21 07:22:05;;;;;;;;;16.00;10.25;;;;;2.50;100.00;102157.31;5074033;28;45389;-80
2024/01/21 07:24:31;;;;;;;;;13.75;10.25;;;;;2.40;100.00;102147.69;5059010;28;45471;-80
2024/01/21 07:26:56;;;;;;;;;11.00;9.50;;;;;2.36;99.49;102143.28;5065848;28;45442;-79
2024/01/21 07:29:21;;;;;;;;;13.00;11.00;;;;;2.62;100.00;102166.97;5070903;28;47917;-79
2024/01/21 07:31:47;;;;;;;;;13.50;9.50;;;;;2.92;100.00;102206.38;5072272;28;45574;-81
2024/01/21 07:34:13;;;;;;;;;17.50;13.25;;;;;2.23;100.00;102078.81;5077454;28;45499;-80
2024/01/21 07:36:38;;;;;;;;;11.50;11.50;;;;;2.17;100.00;102096.16;5081350;28;45505;-82
2024/01/21 07:39:07;;;;;;;;;11.75;11.50;;;;;2.52;100.00;102144.31;5080723;28;46353;-82
2024/01/21 07:41:33;;;;;;;;;11.75;10.75;;;;;2.24;100.00;102106.66;5076504;28;45448;-79
2024/01/21 07:43:59;;;;;;;;;11.25;7.50;;;;;2.10;100.00;102067.41;5078377;28;45467;-79
2024/01/21 07:46:24;;;;;;;;;14.50;11.00;;;;;2.78;100.00;102196.72;5060931;28;45467;-79
2024/01/21 07:48:50;;;;;;;;;10.25;10.25;;;;;2.75;100.00;102220.19;5076161;28;46137;-79
2024/01/21 07:51:19;;;;;;;;;12.50;11.00;;;;;2.43;100.00;102165.97;5073895;28;45385;-79
2024/01/21 07:53:56;;;;;;;;;15.50;14.25;;;;;2.30;100.00;102129.31;5072439;28;45508;-80
2024/01/21 07:56:22;;;;;;;;;15.50;13.50;;;;;3.16;100.00;102302.38;5059979;28;45678;-79
2024/01/21 07:58:47;;;;;;;;;14.25;11.75;;;;;2.54;100.00;102200.88;5072333;28;45446;-80
2024/01/21 08:01:13;;;;;;;;;15.00;12.50;;;;;3.21;100.00;102298.03;5075911;28;45442;-83
2024/01/21 08:03:39;;;;;;;;;20.00;17.50;;;;;2.66;100.00;102214.88;5057086;28;45270;-81
2024/01/21 08:06:13;;;;;;;;;77.25;58.25;;;;;2.85;100.00;102217.66;5059074;28;45527;-80
2024/01/21 08:08:39;;;;;;;;;26.50;21.25;;;;;2.82;100.00;102221.97;5060269;28;48224;-81
2024/01/21 08:11:05;;;;;;;;;16.00;16.00;;;;;2.90;100.00;102202.91;5074856;28;45667;-82
2024/01/21 08:13:34;;;;;;;;;74.50;61.50;;;;;2.91;100.00;102209.00;5074972;28;45392;-83
2024/01/21 08:16:00;;;;;;;;;67.50;54.75;;;;;2.52;100.00;102154.75;5073606;28;45414;-82
2024/01/21 08:18:25;;;;;;;;;15.50;11.50;;;;;2.72;100.00;102175.75;5075777;28;46755;-84
2024/01/21 08:20:51;;;;;;;;;48.75;40.50;;;;;3.37;100.00;102278.97;5078584;28;45390;-82
2024/01/21 08:23:24;;;;;;;;;19.75;15.25;;;;;2.54;100.00;102173.91;5079786;28;45441;-83
2024/01/21 08:25:50;;;;;;;;;15.00;14.50;;;;;2.91;100.00;102216.84;5058888;28;45488;-82
2024/01/21 08:28:19;;;;;;;;;9.00;9.00;;;;;2.35;100.00;102111.97;5075568;28;47818;-84
2024/01/21 08:30:45;;;;;;;;;12.50;12.50;;;;;2.79;100.00;102217.59;5071793;28;45477;-84
2024/01/21 08:33:14;;;;;;;;;12.00;11.75;;;;;2.80;100.00;102236.78;5056331;28;45483;-85
2024/01/21 08:35:59;;;;;;;;;12.25;11.25;;;;;2.77;100.00;102228.91;5077962;28;45416;-84
2024/01/21 08:38:40;;;;;;;;;14.75;12.25;;;;;3.54;100.00;102353.19;5060136;28;45755;-85
2024/01/21 08:41:08;;;;;;;;;17.25;15.00;;;;;2.83;100.00;102244.63;5081098;28;45521;-84
2024/01/21 08:43:42;;;;;;;;;13.75;11.25;;;;;3.36;100.00;102362.66;5066615;28;45430;-83
2024/01/21 08:46:10;;;;;;;;;12.00;11.00;;;;;3.24;100.00;102342.50;5078894;28;45668;-85
2024/01/21 08:48:48;;;;;;;;;13.50;13.00;;;;;3.53;100.00;102377.56;5061881;28;47495;-82
2024/01/21 08:51:13;;;;;;;;;15.00;11.00;;;;;3.01;100.00;102308.34;5061249;28;45438;-80
2024/01/21 08:53:39;;;;;;;;;17.75;15.75;;;;;3.06;100.00;102311.88;5079663;28;45418;-79
2024/01/21 08:56:09;;;;;;;;;14.00;10.50;;;;;2.62;100.00;102193.97;5076876;28;45479;-82
2024/01/21 08:58:47;;;;;;;;;11.50;11.50;;;;;2.54;100.00;102192.19;5070560;28;46231;-79
2024/01/21 09:04:04;;;;;;;;;14.50;12.25;;;;;3.02;100.00;102281.34;5079807;28;45578;-81
2024/01/21 09:06:41;;;;;;;;;15.75;11.00;;;;;2.75;100.00;102200.16;5080398;28;45457;-81
2024/01/21 09:09:13;;;;;;;;;11.50;11.50;;;;;3.39;100.00;102306.03;5076303;28;47660;-80
2024/01/21 09:11:39;;;;;;;;;19.25;15.25;;;;;2.95;100.00;102249.94;5076696;28;45468;-80
2024/01/21 09:14:04;;;;;;;;;11.00;11.00;;;;;3.15;100.00;102282.31;5075458;28;45509;-79
2024/01/21 09:16:33;;;;;;;;;16.00;13.50;;;;;3.51;100.00;102311.31;5059494;28;45446;-80
2024/01/21 09:19:00;;;;;;;;;15.75;14.25;;;;;3.76;100.00;102350.69;5068968;28;46386;-80
2024/01/21 09:21:25;;;;;;;;;11.00;11.00;;;;;3.52;100.00;102328.75;5070460;28;45952;-80
2024/01/21 09:23:53;;;;;;;;;16.75;12.75;;;;;3.30;100.00;102273.72;5063353;28;45637;-79
2024/01/21 09:26:18;;;;;;;;;11.25;11.25;;;;;3.21;100.00;102240.53;5078934;28;45310;-80
2024/01/21 09:28:43;;;;;;;;;14.75;13.50;;;;;3.51;100.00;102298.22;5075079;28;46022;-78
2024/01/21 09:31:09;;;;;;;;;16.50;10.75;;;;;3.46;100.00;102255.50;5078798;28;45661;-80
2024/01/21 09:33:35;;;;;;;;;10.75;10.00;;;;;3.84;100.00;102305.38;5080737;28;45514;-80
2024/01/21 09:36:01;;;;;;;;;13.75;11.00;;;;;3.89;100.00;102297.56;5079157;28;45427;-80
2024/01/21 09:38:28;;;;;;;;;14.25;13.50;;;;;3.87;100.00;102289.69;5057822;28;47171;-81
2024/01/21 09:41:06;;;;;;;;;17.75;17.75;;;;;3.93;100.00;102287.09;5067803;28;45664;-81
2024/01/21 09:43:33;;;;;;;;;17.25;11.50;;;;;3.87;100.00;102278.34;5065098;28;45465;-81
2024/01/21 09:46:39;;;;;;;;;12.25;12.25;;;;;3.88;100.00;102280.97;5068364;28;45703;-82
2024/01/21 09:49:07;;;;;;;;;12.25;9.50;;;;;3.94;100.00;102293.19;5079737;28;45368;-82
2024/01/21 09:51:41;;;;;;;;;7.75;7.50;;;;;3.91;100.00;102280.09;5079264;28;45398;-83
2024/01/21 09:54:10;;;;;;;;;13.75;10.00;;;;;3.48;100.00;102200.56;5060674;28;45529;-82
2024/01/21 09:56:36;;;;;;;;;12.75;11.75;;;;;4.14;100.00;102309.84;5058241;28;45471;-83
2024/01/21 09:59:04;;;;;;;;;16.50;11.00;;;;;3.70;100.00;102228.56;5078483;28;48329;-84
2024/01/21 10:15:15;;;;;;;;;80.75;57.75;;;;;4.58;100.00;102397.28;4910218;28;45492;-83
2024/01/21 10:25:11;;;;;;;;;54.25;40.00;;;;;4.43;100.00;102333.50;4924701;28;45595;-82
2024/01/21 10:27:59;;;;;;;;;49.50;37.25;;;;;4.65;100.00;102390.31;4912840;28;45728;-79
2024/01/21 10:31:16;;;;;;;;;57.50;43.75;;;;;3.87;100.00;102239.09;4891432;28;45520;-82
2024/01/21 10:35:10;;;;;;;;;;;;;;;;;;;;;
2024/01/21 10:45:26;;;;;;;;;12.00;12.00;;;;;5.02;100.00;102303.00;4897388;29;45542;-83
2024/01/21 10:48:19;;;;;;;;;;;;;;;;;;;;;
2024/01/21 10:51:32;;;;;;;;;10.00;8.25;;;;;4.18;100.00;102160.66;4905009;28;74041;-82
2024/01/21 10:54:18;;;;;;;;;;;;;;;;;;;;;
2024/01/21 10:57:01;;;;;;;;;9.00;9.00;;;;;4.30;100.00;102138.81;5077285;28;67963;-82
2024/01/21 10:59:51;;;;;;;;;11.00;6.50;;;;;4.33;100.00;102136.19;5072870;28;45411;-82
2024/01/21 11:02:32;;;;;;;;;;;;;;;;;;;;;
2024/01/21 11:05:27;;;;;;;;;12.00;10.00;;;;;4.43;100.00;102098.66;5068799;28;71351;-82
2024/01/21 11:08:31;;;;;;;;;;;;;;;;;;;;;
2024/01/21 11:11:17;;;;;;;;;11.00;11.00;;;;;5.28;100.00;102226.91;5073174;28;73849;-82
2024/01/21 11:24:46;;;;;;;;;;;;;;;;;;;;;
2024/01/21 11:43:09;;;;;;;;;;;;;;;;;;;;;
2024/01/21 11:45:49;;;;;;;;;15.00;10.25;;;;;5.91;100.00;102220.56;4775595;29;45658;-83
2024/01/21 11:48:52;;;;;;;;;15.75;11.25;;;;;5.87;100.00;102215.31;4771332;29;45648;-82
2024/01/21 11:55:46;;;;;;;;;10.50;9.75;;;;;6.66;100.00;102307.66;4750649;29;45469;-78
2024/01/21 11:58:46;;;;;;;;;13.75;9.25;;;;;6.69;100.00;102324.28;4761722;29;45586;-79
2024/01/21 12:01:49;;;;;;;;;;;;;;;;;;;;;
2024/01/21 12:04:24;;;;;;;;;10.50;10.50;;;;;6.54;100.00;102307.75;4849454;29;70844;-78
2024/01/21 12:07:46;;;;;;;;;13.50;11.50;;;;;5.90;100.00;102208.31;4902645;28;46322;-78
2024/01/21 12:13:49;;;;;;;;;16.00;11.75;;;;;5.73;100.00;102162.84;4953477;28;45680;-77
2024/01/21 12:16:17;;;;;;;;;18.00;14.75;;;;;6.43;100.00;102273.66;4937298;28;45341;-77
2024/01/21 12:19:23;;;;;;;;;;;;;;;;;;;;;
2024/01/21 12:22:14;;;;;;;;;8.50;8.50;;;;;6.69;100.00;102313.78;4953862;28;71922;-77
2024/01/21 12:25:40;;;;;;;;;11.00;10.00;;;;;5.77;100.00;102199.59;4941250;28;45602;-77
2024/01/21 12:28:05;;;;;;;;;14.00;12.50;;;;;6.41;100.00;102285.06;4961627;28;45567;-77
2024/01/21 12:30:37;;;;;;;;;11.00;11.00;;;;;6.03;100.00;102206.47;5075717;28;46259;-77
2024/01/21 12:33:03;;;;;;;;;13.75;12.25;;;;;6.56;100.00;102256.03;5060055;28;45825;-77
2024/01/21 12:35:29;;;;;;;;;12.75;11.50;;;;;6.63;100.00;102273.50;5062777;28;45335;-77
2024/01/21 12:37:55;;;;;;;;;11.50;11.00;;;;;6.15;100.00;102185.41;5061384;28;46064;-77
2024/01/21 12:40:22;;;;;;;;;15.00;12.75;;;;;6.40;100.00;102213.25;5063078;28;48214;-76
2024/01/21 12:42:53;;;;;;;;;13.25;12.00;;;;;6.71;100.00;102274.31;5081120;28;45296;-77